KCRW Airport Diagram

We have created a template for each of the higher traffic airports in the vZID airspace. They include KCMH, KCRW, KCVG, KDAY, KIND, KLEX and KSDF. You wil find usefull information including the airport diagram, weather, and specific airport procedures.

KCRW Weather

[Source: ADDS]
METAR
KCRW 260554Z 00000KT 10SM FEW001 18/17 A3011 RMK AO2 SLP186 VLY FG T01780167 10261 20178 51011 =
KCRW 260538Z 2606/2706 00000KT P6SM FEW250 FM260700 00000KT 4SM BR SCT005 FM260900 00000KT 1SM BR BKN004 FM261100 VRB03KT P6SM FEW200 FM261500 24005KT P6SM FEW040
TAF
KCRW 260538Z 2606/2706 00000KT P6SM FEW250 FM260700 00000KT 4SM BR SCT005 FM260900 00000KT 1SM BR BKN004 FM261100 VRB03KT P6SM FEW200 FM261500 24005KT P6SM FEW040 =

KCRW Operations

Calm wind runway up to 10kts: Rw 23

 

JSN Epic template designed by JoomlaShine.com